Main page
METAR-TAF:

METAR-TAF

Airports :

Itaituba Airport

Itaituba, Pará, Brazil

latitude: 04-15S, longitude: 056-00W, elevation: 34 m

Current weather observation

The report was made 7 hours and 38 minutes ago, at 20:00 UTC
Wind 8 kt from the East/Northeast
Temperature 35°C
Humidity 47%
Pressure 1012 hPa
Visibility 10 km or more
Few clouds at a height of 2500 ft

METAR: SBIH 162000Z 06008KT 9999 FEW025 35/22 Q1012

Time: 00:38 (03:38 UTC)

Forecast

The report was made 5 hours and 38 minutes ago, at 22:00 UTC
Forecast valid from 17 at 00 UTC to 17 at 12 UTC
Wind 3 kt from the East/Southeast
Visibility 10 km or more
no clouds below 1500 m and no cumulonimbus
Becoming
from 17 at 05 UTC to 17 at 07 UTC
Visibility: 5000 m
Scattered clouds at a height of 700 ft
mist
Becoming
from 17 at 09 UTC to 17 at 11 UTC
Visibility: 8000 m
Scattered clouds at a height of 1000 ft

TAF: SBIH 162200Z 1700/1712 11003KT CAVOK TX25/1701Z TN20/1706Z BECMG 1705/1707 5000 BR SCT007 BECMG 1709/1711 8000 SCT010 RMK PFD

Weather observations and forecasts of more than 4000 airports (METAR and TAF reports).

The available stations are represented by yellow and red dots on the map.

Hover mouse over dot to see the name of the station.

Then click to see weather observations and forecasts.

To change the map : click on the green buttons with a black cross to zoom in, on the green button with a dash to zoom out, or on the green arrows for adjacent maps.


METAR-TAF: